Pagina principale
METAR-TAF:

METAR-TAF

Aeroporti :

Aeroporto militare

Landivisiau, Francia

latitudine: 48-31N, longitudine: 004-09W, altezza: 106 m

Osservazione

Il bollettino è stato emesso 30 minuti fa, alle 17:00 UTC
Vento 17 kt da est/nord-est, variando fra nord/nord-est e est
Temperature 23°C
Umidità 44%
Pressione 1016 hPa
Visibilità 10 km o più
nessuna nube inferiore a 1500 m e nessun cumulonembo

METAR: LFRJ 311700Z AUTO 06017KT 020V080 CAVOK 23/10 Q1016

Ora: 19:30 (17:30 UTC)


TAF: mancante

Osservazioni e previsioni meteorologiche di più di 4000 aeroporti (messaggi METAR e TAF).

Le stazioni disponibili sono rappresentate dai dischi gialli e rossi sulla carta.

Puntare il mouse per vedere il nome della stazione.

Clicca sopra per visualizzare le osservazioni e previsioni meteorologiche.

Per cambiare la mappa : fare clic sui pulsanti verdi con una croce nera per ingrandire, il pulsante verde con un trattino per diminuire, o sulla freccia verde per le mappe adiacenti.


METAR-TAF: